createdAt,value
2022-09-10T00:01:20.299Z,23.79
2022-09-10T00:03:49.832Z,22.92
2022-09-10T00:06:18.698Z,23.10
2022-09-10T00:08:46.936Z,24.98
2022-09-10T00:11:15.088Z,23.23
2022-09-10T00:13:42.813Z,22.48
2022-09-10T00:16:14.041Z,22.33
2022-09-10T00:18:42.547Z,22.73
2022-09-10T00:21:12.637Z,22.95
2022-09-10T00:23:40.414Z,23.29
2022-09-10T00:26:27.673Z,23.55
2022-09-10T00:28:59.464Z,23.23
2022-09-10T00:31:27.173Z,23.09
2022-09-10T00:33:54.778Z,23.05
2022-09-10T00:36:25.217Z,23.04
2022-09-10T00:38:54.927Z,22.76
2022-09-10T00:41:24.769Z,23.12
2022-09-10T00:44:02.618Z,23.36
2022-09-10T00:46:47.551Z,22.60
2022-09-10T00:49:47.359Z,22.40
2022-09-10T00:52:15.104Z,22.48
2022-09-10T00:54:43.949Z,22.83
2022-09-10T00:57:16.056Z,22.74
2022-09-10T00:59:47.834Z,22.74
2022-09-10T01:02:15.054Z,22.11
2022-09-10T01:04:42.945Z,22.31
2022-09-10T01:07:11.601Z,22.12
2022-09-10T01:09:39.767Z,22.45
2022-09-10T01:12:35.999Z,22.17
2022-09-10T01:15:35.433Z,21.51
2022-09-10T01:18:34.007Z,21.30
2022-09-10T01:21:17.711Z,20.69
2022-09-10T01:24:04.119Z,21.60
2022-09-10T01:27:11.255Z,21.80
2022-09-10T01:29:55.542Z,21.86
2022-09-10T01:32:33.072Z,21.47
2022-09-10T01:35:46.623Z,22.41
2022-09-10T01:38:35.630Z,22.06
2022-09-10T01:41:04.370Z,22.89
2022-09-10T01:43:36.711Z,22.75
2022-09-10T01:46:41.403Z,22.40
2022-09-10T01:49:31.237Z,21.58
2022-09-10T01:52:26.295Z,22.42
2022-09-10T01:55:33.833Z,22.12
2022-09-10T01:58:17.425Z,21.50
2022-09-10T02:01:10.874Z,21.66
2022-09-10T02:03:40.120Z,21.73
2022-09-10T02:06:12.325Z,22.20
2022-09-10T02:08:41.604Z,21.92
2022-09-10T02:11:12.732Z,22.05
2022-09-10T02:13:42.387Z,21.41
2022-09-10T02:16:31.822Z,22.34
2022-09-10T02:19:00.655Z,22.33
2022-09-10T02:21:28.086Z,21.82
2022-09-10T02:24:10.216Z,22.07
2022-09-10T02:26:40.994Z,22.91
2022-09-10T02:29:09.627Z,23.15
2022-09-10T02:31:38.660Z,22.85
2022-09-10T02:36:33.142Z,23.01
2022-09-10T02:39:02.919Z,23.08
2022-09-10T02:41:32.541Z,22.74
2022-09-10T02:44:01.297Z,21.75
2022-09-10T02:46:29.256Z,21.81
2022-09-10T02:48:56.255Z,22.18
2022-09-10T02:51:24.812Z,22.15
2022-09-10T02:53:52.168Z,21.04
2022-09-10T02:56:20.104Z,21.76
2022-09-10T02:58:47.227Z,22.03
2022-09-10T03:01:19.609Z,22.51
2022-09-10T03:03:56.681Z,23.02
2022-09-10T03:06:25.481Z,22.76
2022-09-10T03:08:55.244Z,22.12
2022-09-10T03:11:25.279Z,21.91
2022-09-10T03:13:52.883Z,22.32
2022-09-10T03:16:20.302Z,22.05
2022-09-10T03:18:47.825Z,21.77
2022-09-10T03:21:21.692Z,22.25
2022-09-10T03:23:50.619Z,22.77
2022-09-10T03:26:25.220Z,22.76
2022-09-10T03:28:53.020Z,22.76
2022-09-10T03:31:22.333Z,22.55
2022-09-10T03:33:51.216Z,22.66
2022-09-10T03:36:18.556Z,22.68
2022-09-10T03:38:47.851Z,22.31
2022-09-10T03:41:14.768Z,22.14
2022-09-10T03:43:41.699Z,22.31
2022-09-10T03:46:11.960Z,21.96
2022-09-10T03:48:43.370Z,20.55
2022-09-10T03:51:10.852Z,21.18
2022-09-10T03:53:38.832Z,21.35
2022-09-10T03:56:07.272Z,21.71
2022-09-10T03:58:35.773Z,21.85
2022-09-10T04:01:04.187Z,22.36
2022-09-10T04:03:34.479Z,22.03
2022-09-10T04:06:01.544Z,21.26
2022-09-10T04:08:28.440Z,21.64
2022-09-10T04:11:02.350Z,22.22
2022-09-10T04:13:29.896Z,21.59
2022-09-10T04:15:56.770Z,21.71
2022-09-10T04:18:24.346Z,21.82
2022-09-10T04:20:51.241Z,22.76
2022-09-10T04:23:18.105Z,22.13
2022-09-10T04:25:46.576Z,21.60
2022-09-10T04:28:13.841Z,21.58
2022-09-10T04:30:40.880Z,22.06
2022-09-10T04:33:09.632Z,22.00
2022-09-10T04:35:36.517Z,22.20
2022-09-10T04:38:07.119Z,21.96
2022-09-10T04:40:38.108Z,21.47
2022-09-10T04:43:05.430Z,21.84
2022-09-10T04:45:36.212Z,22.10
2022-09-10T04:48:06.835Z,21.63
2022-09-10T04:50:35.543Z,21.23
2022-09-10T04:53:16.948Z,21.88
2022-09-10T04:55:47.258Z,22.30
2022-09-10T04:58:15.487Z,21.68
2022-09-10T05:00:44.613Z,21.97
2022-09-10T05:03:13.101Z,21.59
2022-09-10T05:05:42.771Z,21.43
2022-09-10T05:08:09.684Z,20.81
2022-09-10T05:10:36.622Z,21.68
2022-09-10T05:13:05.796Z,21.09
2022-09-10T05:15:34.432Z,21.51
2022-09-10T05:18:04.306Z,21.24
2022-09-10T05:20:35.678Z,21.46
2022-09-10T05:23:02.579Z,21.01
2022-09-10T05:25:29.516Z,21.02
2022-09-10T05:27:58.346Z,21.40
2022-09-10T05:30:26.150Z,20.48
2022-09-10T05:32:53.536Z,20.81
2022-09-10T05:35:20.467Z,21.11
2022-09-10T05:37:48.553Z,21.02
2022-09-10T05:40:15.942Z,20.78
2022-09-10T05:42:44.207Z,20.89
2022-09-10T05:45:11.315Z,20.10
2022-09-10T05:47:38.527Z,19.90
2022-09-10T05:50:07.306Z,20.22
2022-09-10T05:52:34.862Z,20.80
2022-09-10T05:55:06.012Z,20.92
2022-09-10T05:57:33.492Z,21.20
2022-09-10T06:00:01.777Z,21.42
2022-09-10T06:02:30.518Z,21.64
2022-09-10T06:04:58.739Z,21.39
2022-09-10T06:07:28.179Z,21.29
2022-09-10T06:09:55.853Z,21.17
2022-09-10T06:12:35.589Z,21.86
2022-09-10T06:15:03.649Z,21.36
2022-09-10T06:17:30.583Z,21.36
2022-09-10T06:19:58.005Z,20.62
2022-09-10T06:22:25.036Z,20.73
2022-09-10T06:24:53.737Z,21.05
2022-09-10T06:27:23.038Z,20.75
2022-09-10T06:29:52.055Z,20.95
2022-09-10T06:32:19.389Z,20.92
2022-09-10T06:34:47.284Z,20.74
2022-09-10T06:37:14.507Z,21.17
2022-09-10T06:39:41.968Z,21.04
2022-09-10T06:42:08.914Z,22.10
2022-09-10T06:45:00.116Z,21.53
2022-09-10T06:50:36.898Z,20.58
2022-09-10T06:53:04.154Z,20.69
2022-09-10T06:55:31.345Z,20.86
2022-09-10T06:58:00.104Z,21.06
2022-09-10T07:00:32.159Z,21.09
2022-09-10T07:03:01.063Z,21.53
2022-09-10T07:05:29.351Z,21.59
2022-09-10T07:07:56.294Z,21.61
2022-09-10T07:10:23.659Z,21.57
2022-09-10T07:12:51.631Z,21.08
2022-09-10T07:15:20.975Z,20.66
2022-09-10T07:17:47.993Z,22.03
2022-09-10T07:20:15.801Z,22.02
2022-09-10T07:22:47.097Z,21.48
2022-09-10T07:25:15.291Z,20.59
2022-09-10T07:28:04.402Z,22.07
2022-09-10T07:30:35.876Z,22.20
2022-09-10T07:33:02.830Z,22.80
2022-09-10T07:35:31.643Z,22.34
2022-09-10T07:38:00.188Z,21.78
2022-09-10T07:40:28.245Z,21.99
2022-09-10T07:42:56.267Z,22.17
2022-09-10T07:45:23.744Z,20.36
2022-09-10T07:47:51.323Z,21.49
2022-09-10T07:50:32.724Z,20.84
2022-09-10T07:53:01.335Z,21.14
2022-09-10T07:55:29.058Z,20.42
2022-09-10T07:57:59.898Z,20.93
2022-09-10T08:00:28.135Z,21.23
2022-09-10T08:02:59.002Z,20.76
2022-09-10T08:05:28.751Z,21.25
2022-09-10T08:07:55.864Z,21.57
2022-09-10T08:10:25.447Z,21.85
2022-09-10T08:12:52.633Z,21.51
2022-09-10T08:15:20.355Z,21.69
2022-09-10T08:17:47.850Z,20.99
2022-09-10T08:20:15.907Z,20.67
2022-09-10T08:22:44.978Z,21.66
2022-09-10T08:25:12.274Z,20.98
2022-09-10T08:27:42.027Z,20.52
2022-09-10T08:30:16.075Z,21.30
2022-09-10T08:32:43.200Z,21.39
2022-09-10T08:35:11.915Z,22.01
2022-09-10T08:37:38.855Z,21.40
2022-09-10T08:40:08.107Z,21.13
2022-09-10T08:42:48.214Z,21.50
2022-09-10T08:45:23.490Z,22.01
2022-09-10T08:48:08.296Z,21.15
2022-09-10T08:51:13.322Z,21.33
2022-09-10T08:53:54.131Z,21.80
2022-09-10T08:56:23.650Z,21.42
2022-09-10T08:59:14.799Z,22.19
2022-09-10T09:01:50.788Z,22.20
2022-09-10T09:04:47.194Z,22.42
2022-09-10T09:07:19.724Z,20.79
2022-09-10T09:09:51.850Z,22.01
2022-09-10T09:12:37.939Z,22.98
2022-09-10T09:15:20.384Z,22.28
2022-09-10T09:18:15.453Z,22.30
2022-09-10T09:20:48.664Z,22.91
2022-09-10T09:24:11.771Z,23.39
2022-09-10T09:26:39.294Z,22.85
2022-09-10T09:29:11.461Z,21.79
2022-09-10T09:31:44.810Z,22.79
2022-09-10T09:34:21.373Z,21.47
2022-09-10T09:36:53.247Z,22.91
2022-09-10T09:39:38.416Z,23.50
2022-09-10T09:42:23.666Z,23.32
2022-09-10T09:45:06.768Z,23.69
2022-09-10T09:47:33.860Z,23.79
2022-09-10T09:50:00.884Z,22.60
2022-09-10T09:52:31.761Z,23.11
2022-09-10T09:55:24.793Z,22.16
2022-09-10T09:58:20.923Z,22.81
2022-09-10T10:01:21.353Z,22.83
2022-09-10T10:04:01.710Z,23.24
2022-09-10T10:06:33.326Z,22.59
2022-09-10T10:09:07.225Z,22.16
2022-09-10T10:11:47.115Z,22.83
2022-09-10T10:14:30.863Z,22.74
2022-09-10T10:17:01.015Z,22.70
2022-09-10T10:19:40.097Z,22.52
2022-09-10T10:22:18.756Z,22.26
2022-09-10T10:24:48.970Z,22.29
2022-09-10T10:27:54.320Z,22.05
2022-09-10T10:30:23.955Z,22.34
2022-09-10T10:33:00.089Z,22.74
2022-09-10T10:36:13.998Z,22.34
2022-09-10T10:38:47.764Z,22.58
2022-09-10T10:41:58.829Z,22.70
2022-09-10T10:44:44.695Z,22.24
2022-09-10T10:47:43.326Z,21.80
2022-09-10T10:51:04.640Z,20.98
2022-09-10T10:53:57.987Z,22.45
2022-09-10T10:56:40.884Z,22.56
2022-09-10T10:59:43.026Z,22.68
2022-09-10T11:02:24.605Z,22.71
2022-09-10T11:04:54.681Z,23.01
2022-09-10T11:07:30.362Z,23.11
2022-09-10T11:10:39.461Z,23.45
2022-09-10T11:13:19.732Z,23.62
2022-09-10T11:16:05.416Z,22.68
2022-09-10T11:18:43.906Z,23.49
2022-09-10T11:21:31.315Z,23.84
2022-09-10T11:24:19.552Z,24.34
2022-09-10T11:27:15.598Z,24.49
2022-09-10T11:30:06.544Z,25.05
2022-09-10T11:32:42.762Z,25.02
2022-09-10T11:35:39.778Z,25.40
2022-09-10T11:38:24.683Z,25.13
2022-09-10T11:41:22.282Z,25.58
2022-09-10T11:44:21.730Z,25.41
2022-09-10T11:47:07.863Z,24.56
2022-09-10T11:50:07.123Z,23.93
2022-09-10T11:52:35.187Z,24.02
2022-09-10T11:55:04.256Z,24.20
2022-09-10T11:58:04.228Z,25.39
2022-09-10T12:00:40.970Z,24.76
2022-09-10T12:03:56.064Z,24.92
2022-09-10T12:07:03.401Z,24.05
2022-09-10T12:09:57.120Z,23.93
2022-09-10T12:12:45.739Z,24.03
2022-09-10T12:15:19.953Z,23.42
2022-09-10T12:17:59.873Z,24.20
2022-09-10T12:20:48.999Z,23.38
2022-09-10T12:23:43.522Z,23.55
2022-09-10T12:26:16.295Z,24.09
2022-09-10T12:28:43.054Z,24.19
2022-09-10T12:31:16.435Z,26.39
2022-09-10T12:33:45.832Z,26.44
2022-09-10T12:36:24.168Z,26.20
2022-09-10T12:39:16.287Z,25.61
2022-09-10T12:41:43.059Z,28.20
2022-09-10T12:44:36.337Z,25.46
2022-09-10T12:47:18.191Z,24.53
2022-09-10T12:49:59.442Z,23.97
2022-09-10T12:52:44.296Z,24.30
2022-09-10T12:55:21.726Z,24.76
2022-09-10T12:58:07.125Z,24.57
2022-09-10T13:00:55.848Z,22.53
2022-09-10T13:03:26.351Z,23.72
2022-09-10T13:05:57.078Z,23.74
2022-09-10T13:08:37.435Z,24.22
2022-09-10T13:11:21.390Z,25.31
2022-09-10T13:14:05.270Z,26.04
2022-09-10T13:16:32.508Z,25.16
2022-09-10T13:19:14.485Z,25.33
2022-09-10T13:21:41.232Z,24.20
2022-09-10T13:24:37.109Z,24.10
2022-09-10T13:27:18.810Z,24.79
2022-09-10T13:29:53.493Z,24.03
2022-09-10T13:32:28.854Z,24.59
2022-09-10T13:35:06.162Z,24.69
2022-09-10T13:38:28.445Z,23.82
2022-09-10T13:41:23.105Z,25.61
2022-09-10T13:44:15.909Z,23.73
2022-09-10T13:46:47.298Z,24.16
2022-09-10T13:49:26.312Z,24.58
2022-09-10T13:51:56.990Z,24.13
2022-09-10T13:54:34.426Z,24.63
2022-09-10T13:57:15.764Z,24.62
2022-09-10T13:59:44.359Z,24.43
2022-09-10T14:02:11.400Z,23.90
2022-09-10T14:04:44.758Z,23.77
2022-09-10T14:07:19.041Z,25.21
2022-09-10T14:10:00.782Z,25.14
2022-09-10T14:12:32.725Z,24.80
2022-09-10T14:15:06.369Z,25.21
2022-09-10T14:17:45.112Z,24.38
2022-09-10T14:20:26.864Z,24.63
2022-09-10T14:23:05.852Z,24.80
2022-09-10T14:25:35.718Z,25.20
2022-09-10T14:28:32.168Z,24.58
2022-09-10T14:31:26.825Z,24.36
2022-09-10T14:33:55.854Z,24.01
2022-09-10T14:36:35.607Z,24.01
2022-09-10T14:39:19.856Z,24.13
2022-09-10T14:41:48.106Z,24.32
2022-09-10T14:44:24.097Z,24.59
2022-09-10T14:47:09.282Z,25.01
2022-09-10T14:49:38.832Z,25.18
2022-09-10T14:52:07.806Z,24.86
2022-09-10T14:54:35.418Z,24.77
2022-09-10T14:57:06.519Z,23.75
2022-09-10T14:59:38.453Z,23.62
2022-09-10T15:02:21.797Z,23.06
2022-09-10T15:04:49.105Z,23.79
2022-09-10T15:07:16.216Z,23.33
2022-09-10T15:09:43.136Z,21.82
2022-09-10T15:12:19.983Z,23.41
2022-09-10T15:14:46.866Z,24.00
2022-09-10T15:17:15.129Z,24.25
2022-09-10T15:19:42.120Z,24.23
2022-09-10T15:22:27.056Z,24.01
2022-09-10T15:25:11.425Z,26.32
2022-09-10T15:27:38.713Z,25.62
2022-09-10T15:30:06.824Z,25.65
2022-09-10T15:32:33.717Z,25.99
2022-09-10T15:35:01.157Z,24.46
2022-09-10T15:37:28.045Z,27.04
2022-09-10T15:39:56.512Z,24.79
2022-09-10T15:42:23.467Z,25.05
2022-09-10T15:44:50.386Z,24.32
2022-09-10T15:47:17.269Z,24.23
2022-09-10T15:49:44.744Z,24.11
2022-09-10T15:52:11.632Z,24.00
2022-09-10T15:54:38.841Z,23.78
2022-09-10T15:57:06.719Z,23.80
2022-09-10T15:59:33.681Z,24.31
2022-09-10T16:02:00.623Z,24.75
2022-09-10T16:04:30.697Z,23.50
2022-09-10T16:07:00.756Z,22.75
2022-09-10T16:09:27.703Z,23.15
2022-09-10T16:11:54.660Z,25.02
2022-09-10T16:14:21.654Z,23.16
2022-09-10T16:16:49.253Z,22.73
2022-09-10T16:19:16.188Z,24.62
2022-09-10T16:21:45.725Z,25.00
2022-09-10T16:24:12.879Z,26.03
2022-09-10T16:26:42.057Z,25.55
2022-09-10T16:29:28.521Z,26.35
2022-09-10T16:31:56.492Z,25.79
2022-09-10T16:34:23.519Z,24.83
2022-09-10T16:36:51.386Z,22.85
2022-09-10T16:39:19.949Z,24.00
2022-09-10T16:41:49.113Z,24.87
2022-09-10T16:44:18.158Z,25.19
2022-09-10T16:46:46.962Z,25.95
2022-09-10T16:49:18.097Z,25.16
2022-09-10T16:51:47.208Z,25.07
2022-09-10T16:54:15.857Z,22.05
2022-09-10T16:56:45.516Z,22.27
2022-09-10T16:59:16.194Z,23.89
2022-09-10T17:01:44.815Z,23.10
2022-09-10T17:04:19.780Z,24.91
2022-09-10T17:06:48.670Z,25.00
2022-09-10T17:09:15.974Z,24.31
2022-09-10T17:11:43.149Z,24.00
2022-09-10T17:14:11.472Z,25.43
2022-09-10T17:16:40.807Z,26.20
2022-09-10T17:19:10.942Z,25.63
2022-09-10T17:21:42.880Z,25.84
2022-09-10T17:24:12.448Z,26.22
2022-09-10T17:26:41.261Z,26.36
2022-09-10T17:29:19.181Z,25.22
2022-09-10T17:31:46.999Z,24.60
2022-09-10T17:34:15.942Z,25.18
2022-09-10T17:36:45.911Z,25.05
2022-09-10T17:39:14.090Z,25.93
2022-09-10T17:41:41.936Z,24.25
2022-09-10T17:44:11.241Z,24.32
2022-09-10T17:46:38.632Z,24.08
2022-09-10T17:49:06.437Z,23.93
2022-09-10T17:51:35.178Z,23.97
2022-09-10T17:54:05.223Z,23.52
2022-09-10T17:56:32.262Z,23.49
2022-09-10T17:59:04.171Z,23.48
2022-09-10T18:01:36.188Z,23.46
2022-09-10T18:04:04.205Z,23.63
2022-09-10T18:06:32.231Z,24.14
2022-09-10T18:09:00.843Z,23.97
2022-09-10T18:11:31.538Z,23.81
2022-09-10T18:13:59.473Z,22.92
2022-09-10T18:16:30.083Z,23.25
2022-09-10T18:19:13.009Z,23.48
2022-09-10T18:21:42.336Z,24.49
2022-09-10T18:24:19.048Z,23.09
2022-09-10T18:26:48.578Z,24.03
2022-09-10T18:29:24.883Z,23.46
2022-09-10T18:31:58.187Z,23.77
2022-09-10T18:34:28.500Z,22.98
2022-09-10T18:36:59.157Z,22.92
2022-09-10T18:39:28.468Z,22.58
2022-09-10T18:41:57.212Z,23.60
2022-09-10T18:44:29.020Z,22.89
2022-09-10T18:46:56.181Z,22.54
2022-09-10T18:49:25.063Z,23.27
2022-09-10T18:51:55.136Z,22.65
2022-09-10T18:54:24.048Z,23.37
2022-09-10T18:56:51.306Z,23.63
2022-09-10T18:59:23.077Z,23.20
2022-09-10T19:01:54.331Z,23.05
2022-09-10T19:04:28.004Z,23.04
2022-09-10T19:06:56.353Z,23.17
2022-09-10T19:09:29.634Z,24.04
2022-09-10T19:11:58.724Z,23.39
2022-09-10T19:14:31.197Z,23.18
2022-09-10T19:17:00.356Z,22.43
2022-09-10T19:19:31.183Z,24.35
2022-09-10T19:22:03.283Z,23.51
2022-09-10T19:24:54.138Z,22.88
2022-09-10T19:27:17.899Z,22.83
2022-09-10T19:29:47.190Z,22.77
2022-09-10T19:32:15.087Z,22.98
2022-09-10T19:34:42.708Z,22.73
2022-09-10T19:37:09.738Z,22.09
2022-09-10T19:39:36.700Z,22.58
2022-09-10T19:42:04.137Z,22.52
2022-09-10T19:44:30.993Z,21.96
2022-09-10T19:46:58.650Z,23.01
2022-09-10T19:49:25.547Z,22.24
2022-09-10T19:51:52.461Z,21.33
2022-09-10T19:54:19.398Z,22.73
2022-09-10T19:56:46.436Z,22.51
2022-09-10T19:59:14.247Z,21.91
2022-09-10T20:01:44.041Z,21.97
2022-09-10T20:04:12.613Z,22.31
2022-09-10T20:06:40.056Z,22.52
2022-09-10T20:09:09.871Z,21.88
2022-09-10T20:11:36.875Z,21.76
2022-09-10T20:14:13.086Z,22.64
2022-09-10T20:16:45.200Z,22.51
2022-09-10T20:19:17.919Z,22.72
2022-09-10T20:21:46.407Z,22.70
2022-09-10T20:24:13.619Z,22.02
2022-09-10T20:26:41.605Z,23.39
2022-09-10T20:29:12.554Z,22.60
2022-09-10T20:31:41.577Z,22.99
2022-09-10T20:34:13.687Z,22.97
2022-09-10T20:36:42.231Z,22.16
2022-09-10T20:39:12.613Z,23.33
2022-09-10T20:41:40.122Z,22.38
2022-09-10T20:44:07.483Z,22.90
2022-09-10T20:46:34.692Z,22.08
2022-09-10T20:49:04.816Z,22.43
2022-09-10T20:51:38.714Z,23.01
2022-09-10T20:54:10.271Z,22.91
2022-09-10T20:56:37.226Z,22.14
2022-09-10T20:59:04.145Z,22.42
2022-09-10T21:01:31.286Z,21.65
2022-09-10T21:04:00.343Z,22.21
2022-09-10T21:06:31.124Z,22.10
2022-09-10T21:09:00.199Z,22.54
2022-09-10T21:11:32.059Z,22.88
2022-09-10T21:14:01.990Z,21.73
2022-09-10T21:16:31.752Z,22.26
2022-09-10T21:19:12.110Z,22.16
2022-09-10T21:21:40.451Z,23.14
2022-09-10T21:24:13.958Z,22.66
2022-09-10T21:26:43.193Z,22.99
2022-09-10T21:29:16.401Z,22.70
2022-09-10T21:31:45.161Z,22.25
2022-09-10T21:34:12.852Z,22.94
2022-09-10T21:36:43.819Z,22.01
2022-09-10T21:39:17.165Z,23.15
2022-09-10T21:41:47.738Z,22.90
2022-09-10T21:44:23.075Z,22.68
2022-09-10T21:46:50.165Z,22.78
2022-09-10T21:49:18.330Z,22.91
2022-09-10T21:51:45.236Z,23.05
2022-09-10T21:54:22.016Z,22.67
2022-09-10T21:56:50.626Z,22.46
2022-09-10T21:59:17.869Z,22.42
2022-09-10T22:01:46.478Z,22.84
2022-09-10T22:04:18.833Z,23.10
2022-09-10T22:06:48.646Z,23.03
2022-09-10T22:09:16.536Z,22.88
2022-09-10T22:11:47.094Z,23.15
2022-09-10T22:14:22.857Z,23.76
2022-09-10T22:16:51.097Z,21.89
2022-09-10T22:19:22.394Z,22.00
2022-09-10T22:21:50.070Z,21.52
2022-09-10T22:24:20.078Z,22.45
2022-09-10T22:26:47.744Z,23.19
2022-09-10T22:29:19.504Z,22.89
2022-09-10T22:31:47.190Z,22.70
2022-09-10T22:34:17.263Z,23.27
2022-09-10T22:36:46.004Z,22.53
2022-09-10T22:39:21.337Z,23.87
2022-09-10T22:41:50.409Z,23.70
2022-09-10T22:44:17.993Z,23.88
2022-09-10T22:46:45.147Z,23.65
2022-09-10T22:49:12.490Z,22.67
2022-09-10T22:51:43.991Z,22.29
2022-09-10T22:54:11.449Z,21.34
2022-09-10T22:56:39.482Z,24.49
2022-09-10T22:59:07.357Z,22.33
2022-09-10T23:01:37.409Z,22.54
2022-09-10T23:04:06.877Z,22.51
2022-09-10T23:06:37.058Z,22.35
2022-09-10T23:09:12.952Z,21.88
2022-09-10T23:11:41.349Z,21.87
2022-09-10T23:14:13.233Z,21.79
2022-09-10T23:16:42.217Z,21.35
2022-09-10T23:19:15.649Z,22.03
2022-09-10T23:21:49.163Z,22.29
2022-09-10T23:24:19.524Z,22.78
2022-09-10T23:26:46.591Z,22.18
2022-09-10T23:29:13.706Z,22.41
2022-09-10T23:31:41.058Z,22.66
2022-09-10T23:34:14.397Z,21.82
2022-09-10T23:36:44.249Z,22.14
2022-09-10T23:39:20.762Z,22.91
2022-09-10T23:41:49.710Z,21.38
2022-09-10T23:44:17.470Z,22.20
2022-09-10T23:46:44.677Z,22.31
2022-09-10T23:49:12.567Z,21.99
2022-09-10T23:51:39.459Z,22.00
2022-09-10T23:54:06.598Z,22.37
2022-09-10T23:56:33.497Z,22.18
2022-09-10T23:59:00.608Z,22.77
